Time;durP1;ratioP1;P1;durP2;ratioP2;P2;SDS_P1;SDS_P2;PMS_P1;PMS_P2;Temp;Humidity;BMP_temperature;BMP_pressure;BME280_temperature;BME280_humidity;BME280_pressure;Samples;Min_cycle;Max_cycle;Signal;HPM_P1;HPM_P2
2022/02/06 00:00:36;;;;;;;0.40;0.20;;;5.20;99.90;;;;;;5031365;28;20490;-73
2022/02/06 00:03:02;;;;;;;0.40;0.20;;;5.20;99.90;;;;;;5031355;28;20748;-72
2022/02/06 00:05:28;;;;;;;0.40;0.20;;;5.20;99.90;;;;;;5031455;28;20390;-72
2022/02/06 00:07:55;;;;;;;0.40;0.20;;;5.20;99.90;;;;;;5030658;28;20387;-73
2022/02/06 00:10:21;;;;;;;0.40;0.30;;;5.20;99.90;;;;;;5031511;28;20399;-73
2022/02/06 00:12:47;;;;;;;0.40;0.33;;;5.20;99.90;;;;;;5030369;28;20829;-72
2022/02/06 00:15:13;;;;;;;0.40;0.20;;;5.20;99.90;;;;;;5031635;28;20381;-73
2022/02/06 00:17:39;;;;;;;0.40;0.20;;;5.20;99.90;;;;;;5031261;28;20437;-73
2022/02/06 00:20:05;;;;;;;0.40;0.20;;;5.20;99.90;;;;;;5032161;28;20414;-73
2022/02/06 00:25:29;;;;;;;0.40;0.28;;;5.20;99.90;;;;;;5030520;28;20387;-72
2022/02/06 00:36:02;;;;;;;0.40;0.20;;;5.20;99.90;;;;;;5008008;28;20834;-75
2022/02/06 00:39:01;;;;;;;0.40;0.20;;;5.10;99.90;;;;;;5031642;28;20878;-73
2022/02/06 00:43:39;;;;;;;0.40;0.20;;;5.10;99.90;;;;;;5031056;28;20394;-73
2022/02/06 00:46:08;;;;;;;0.40;0.30;;;5.10;99.90;;;;;;5030527;28;20791;-72
2022/02/06 00:48:38;;;;;;;0.40;0.20;;;5.20;99.90;;;;;;5031356;28;20879;-73
2022/02/06 00:51:18;;;;;;;0.40;0.20;;;5.20;99.90;;;;;;5030253;28;20886;-73
2022/02/06 00:53:44;;;;;;;0.40;0.20;;;5.20;99.90;;;;;;5030756;28;20874;-73
2022/02/06 00:56:10;;;;;;;0.40;0.20;;;5.10;99.90;;;;;;5030296;28;20573;-74
2022/02/06 00:58:36;;;;;;;0.40;0.20;;;5.00;99.90;;;;;;5029797;28;20430;-72
2022/02/06 01:01:02;;;;;;;0.40;0.20;;;5.20;99.90;;;;;;5030963;28;20456;-71
2022/02/06 01:03:28;;;;;;;0.40;0.20;;;5.20;99.90;;;;;;5030270;28;20391;-73
2022/02/06 01:05:55;;;;;;;0.45;0.43;;;5.20;99.90;;;;;;5030952;28;20395;-73
2022/02/06 01:08:21;;;;;;;0.40;0.20;;;5.20;99.90;;;;;;5030498;28;20414;-73
2022/02/06 01:10:47;;;;;;;0.40;0.20;;;5.20;99.90;;;;;;5030892;28;20445;-73
2022/02/06 01:13:20;;;;;;;0.40;0.30;;;5.20;99.90;;;;;;5030317;28;20387;-73
2022/02/06 01:15:53;;;;;;;0.40;0.20;;;5.30;99.90;;;;;;5030999;28;20371;-73
2022/02/06 01:18:32;;;;;;;0.40;0.20;;;5.30;99.90;;;;;;5030085;28;20409;-73
2022/02/06 01:21:07;;;;;;;0.40;0.22;;;5.30;99.90;;;;;;5030647;28;20454;-73
2022/02/06 01:23:49;;;;;;;0.40;0.20;;;5.20;99.90;;;;;;5029806;28;20386;-73
2022/02/06 01:26:28;;;;;;;0.40;0.30;;;5.20;99.90;;;;;;5030872;28;20842;-72
2022/02/06 01:29:05;;;;;;;0.40;0.30;;;5.30;99.90;;;;;;5014473;28;20411;-72
2022/02/06 01:34:09;;;;;;;0.40;0.20;;;5.20;99.90;;;;;;5030633;28;20380;-73
2022/02/06 01:36:43;;;;;;;0.40;0.20;;;5.20;99.90;;;;;;5011713;28;20395;-72
2022/02/06 01:41:40;;;;;;;0.40;0.30;;;5.20;99.90;;;;;;5029731;28;20481;-72
2022/02/06 01:44:14;;;;;;;0.40;0.20;;;5.30;99.90;;;;;;5013681;28;20395;-72
2022/02/06 02:03:29;;;;;;;0.40;0.20;;;5.40;99.90;;;;;;4993178;28;20413;-72
2022/02/06 02:06:29;;;;;;;0.40;0.20;;;5.40;99.90;;;;;;5028659;28;20387;-73
2022/02/06 02:14:54;;;;;;;0.40;0.20;;;5.30;99.90;;;;;;5030058;28;20736;-70
2022/02/06 02:25:18;;;;;;;0.40;0.20;;;5.50;99.90;;;;;;5029811;28;20781;-72
2022/02/06 02:48:29;;;;;;;0.40;0.20;;;5.10;99.90;;;;;;5029346;28;20383;-71
2022/02/06 02:51:00;;;;;;;0.40;0.20;;;5.20;99.90;;;;;;5029433;28;20835;-72
2022/02/06 02:53:32;;;;;;;0.40;0.20;;;5.10;99.90;;;;;;5029113;28;20850;-73
2022/02/06 03:01:09;;;;;;;0.40;0.30;;;5.10;99.90;;;;;;5029610;28;20848;-72
2022/02/06 03:03:37;;;;;;;0.40;0.20;;;5.10;99.90;;;;;;5028894;28;20390;-70
2022/02/06 03:06:05;;;;;;;0.40;0.20;;;5.10;99.90;;;;;;5029326;28;21003;-70
2022/02/06 03:08:33;;;;;;;0.40;0.20;;;5.00;99.90;;;;;;5028876;28;20436;-72
2022/02/06 03:11:03;;;;;;;0.40;0.20;;;5.10;99.90;;;;;;5011767;28;20907;-72
2022/02/06 03:13:56;;;;;;;0.40;0.30;;;5.00;99.90;;;;;;5028795;28;20391;-73
2022/02/06 03:16:25;;;;;;;0.40;0.20;;;5.10;99.90;;;;;;5030775;28;20509;-72
2022/02/06 03:21:23;;;;;;;0.40;0.20;;;5.10;99.90;;;;;;5032919;28;20494;-72
2022/02/06 03:23:54;;;;;;;0.40;0.30;;;5.20;99.90;;;;;;5032550;28;20555;-72
2022/02/06 03:26:22;;;;;;;0.40;0.20;;;5.10;99.90;;;;;;5033011;28;20387;-72
2022/02/06 03:28:48;;;;;;;0.40;0.20;;;5.10;99.90;;;;;;5032168;28;20386;-73
2022/02/06 03:31:15;;;;;;;0.40;0.20;;;5.10;99.90;;;;;;5032250;28;20395;-71
2022/02/06 03:33:41;;;;;;;0.40;0.20;;;5.00;99.90;;;;;;5032369;28;20811;-73
2022/02/06 03:36:07;;;;;;;0.40;0.20;;;5.10;99.90;;;;;;5032616;28;20848;-73
2022/02/06 03:38:33;;;;;;;0.40;0.20;;;5.00;99.90;;;;;;5032422;28;20415;-72
2022/02/06 03:41:06;;;;;;;0.40;0.20;;;5.10;99.90;;;;;;5032233;28;20910;-74
2022/02/06 03:43:47;;;;;;;0.40;0.30;;;5.00;99.90;;;;;;5014995;28;20423;-73
2022/02/06 03:46:19;;;;;;;0.40;0.20;;;5.00;99.90;;;;;;5032496;28;20387;-72
2022/02/06 03:49:04;;;;;;;0.40;0.20;;;5.00;99.90;;;;;;5032184;28;20386;-73
2022/02/06 03:51:35;;;;;;;0.40;0.20;;;5.00;99.90;;;;;;5031075;28;20422;-73
2022/02/06 03:54:01;;;;;;;0.40;0.20;;;5.10;99.90;;;;;;5031666;28;20388;-72
2022/02/06 03:56:29;;;;;;;0.40;0.30;;;5.10;99.90;;;;;;5032299;28;20509;-72
2022/02/06 03:58:55;;;;;;;0.40;0.25;;;5.10;99.90;;;;;;5031590;28;20422;-73
2022/02/06 04:01:21;;;;;;;0.40;0.20;;;5.10;99.90;;;;;;5030837;28;20410;-71
2022/02/06 04:03:47;;;;;;;0.40;0.20;;;5.20;99.90;;;;;;5032534;28;20478;-72
2022/02/06 04:06:12;;;;;;;0.40;0.20;;;5.20;99.90;;;;;;5030827;28;20478;-72
2022/02/06 04:08:39;;;;;;;0.40;0.20;;;5.10;99.90;;;;;;5031802;28;20418;-73
2022/02/06 04:11:10;;;;;;;0.40;0.20;;;5.10;99.90;;;;;;5029963;28;20748;-71
2022/02/06 04:13:42;;;;;;;0.40;0.20;;;5.30;99.90;;;;;;5032199;28;20375;-72
2022/02/06 04:16:14;;;;;;;0.40;0.30;;;5.20;99.90;;;;;;5031027;28;20380;-72
2022/02/06 04:18:49;;;;;;;0.40;0.20;;;5.20;99.90;;;;;;5014247;28;20807;-72
2022/02/06 04:21:15;;;;;;;0.40;0.20;;;5.30;99.90;;;;;;5031014;28;20450;-72
2022/02/06 04:23:41;;;;;;;0.40;0.20;;;5.20;99.90;;;;;;5031579;28;20433;-73
2022/02/06 04:26:07;;;;;;;0.40;0.20;;;5.10;99.90;;;;;;5030501;28;20453;-73
2022/02/06 04:28:33;;;;;;;0.40;0.20;;;5.20;99.90;;;;;;5030667;28;20496;-71
2022/02/06 04:30:59;;;;;;;0.40;0.20;;;5.20;99.90;;;;;;5031952;28;20832;-73
2022/02/06 04:33:25;;;;;;;0.40;0.20;;;5.20;99.90;;;;;;5031485;28;20537;-73
2022/02/06 04:35:54;;;;;;;0.40;0.20;;;5.30;99.90;;;;;;5014214;28;20749;-73
2022/02/06 04:41:46;;;;;;;0.40;0.20;;;5.40;99.90;;;;;;4969868;28;20445;-71
2022/02/06 05:32:47;;;;;;;0.40;0.20;;;5.60;99.90;;;;;;5030965;28;20458;-72
2022/02/06 05:35:12;;;;;;;0.40;0.20;;;5.60;99.90;;;;;;5031156;28;20782;-72
2022/02/06 05:37:38;;;;;;;0.40;0.30;;;5.60;99.90;;;;;;5030859;28;20399;-72
2022/02/06 05:40:05;;;;;;;0.40;0.20;;;5.60;99.90;;;;;;5029364;28;20415;-72
2022/02/06 05:42:30;;;;;;;0.40;0.20;;;5.60;99.90;;;;;;5030899;28;20406;-72
2022/02/06 05:44:56;;;;;;;0.40;0.20;;;5.60;99.90;;;;;;5030173;28;20375;-73
2022/02/06 05:47:24;;;;;;;0.40;0.22;;;5.70;99.90;;;;;;5030561;28;20890;-71
2022/02/06 05:49:51;;;;;;;0.40;0.20;;;5.70;99.90;;;;;;5030584;28;20825;-71
2022/02/06 05:52:17;;;;;;;0.40;0.30;;;5.70;99.90;;;;;;5030122;28;20374;-72
2022/02/06 05:54:43;;;;;;;0.40;0.20;;;5.70;99.90;;;;;;5030564;28;20391;-72
2022/02/06 05:57:09;;;;;;;0.40;0.20;;;5.70;99.90;;;;;;5029673;28;20390;-70
2022/02/06 05:59:34;;;;;;;0.40;0.20;;;5.70;99.90;;;;;;5013115;28;20427;-69
2022/02/06 06:02:00;;;;;;;0.40;0.20;;;5.70;99.90;;;;;;5030029;28;20470;-73
2022/02/06 06:04:26;;;;;;;0.40;0.20;;;5.70;99.90;;;;;;5030266;28;20383;-69
2022/02/06 06:06:51;;;;;;;0.40;0.20;;;5.70;99.90;;;;;;5030483;28;20473;-72
2022/02/06 06:09:17;;;;;;;0.40;0.20;;;5.70;99.90;;;;;;5029837;28;20863;-73
2022/02/06 06:11:43;;;;;;;0.40;0.20;;;5.70;99.90;;;;;;5030392;28;20390;-72
2022/02/06 06:14:08;;;;;;;0.40;0.20;;;5.70;99.90;;;;;;5030031;28;20379;-72
2022/02/06 06:16:35;;;;;;;0.40;0.20;;;5.70;99.90;;;;;;5030756;28;20390;-70
2022/02/06 06:19:03;;;;;;;0.40;0.20;;;5.70;99.90;;;;;;5013437;28;20395;-69
2022/02/06 06:21:34;;;;;;;0.40;0.30;;;5.70;99.90;;;;;;5029974;28;21171;-72
2022/02/06 06:24:00;;;;;;;0.40;0.20;;;5.70;99.90;;;;;;5030948;28;20393;-72
2022/02/06 06:26:29;;;;;;;0.40;0.30;;;5.70;99.90;;;;;;5029800;28;20383;-73
2022/02/06 06:28:55;;;;;;;0.40;0.20;;;5.70;99.90;;;;;;5012944;28;20506;-72
2022/02/06 06:31:21;;;;;;;0.40;0.20;;;5.70;99.90;;;;;;5029714;28;20482;-74
2022/02/06 06:33:47;;;;;;;0.50;0.50;;;5.70;99.90;;;;;;5030369;28;20387;-73
2022/02/06 06:36:13;;;;;;;0.70;0.50;;;5.70;99.90;;;;;;5030761;28;20488;-71
2022/02/06 06:38:39;;;;;;;0.40;0.20;;;5.80;99.90;;;;;;5029597;28;20560;-72
2022/02/06 06:41:04;;;;;;;0.40;0.30;;;5.80;99.90;;;;;;5030466;28;20415;-70
2022/02/06 06:43:30;;;;;;;0.40;0.20;;;5.70;99.90;;;;;;5011869;28;20395;-73
2022/02/06 06:45:57;;;;;;;0.40;0.20;;;5.70;99.90;;;;;;5030235;28;20387;-72
2022/02/06 06:48:23;;;;;;;0.40;0.20;;;5.70;99.90;;;;;;5030305;28;20383;-73
2022/02/06 06:50:49;;;;;;;0.40;0.20;;;5.70;99.90;;;;;;5029898;28;20462;-72
2022/02/06 06:53:15;;;;;;;0.40;0.20;;;5.70;99.90;;;;;;5016522;28;20446;-73
2022/02/06 06:55:49;;;;;;;0.50;0.50;;;5.70;99.90;;;;;;5033335;28;20416;-73
2022/02/06 06:58:20;;;;;;;1.00;0.80;;;5.70;99.90;;;;;;5033749;28;20417;-73
2022/02/06 07:03:11;;;;;;;0.40;0.20;;;5.70;99.90;;;;;;5034124;28;20470;-73
2022/02/06 07:05:37;;;;;;;0.40;0.20;;;5.70;99.90;;;;;;5034008;28;20407;-71
2022/02/06 07:08:03;;;;;;;0.40;0.20;;;5.70;99.90;;;;;;5033285;28;20399;-72
2022/02/06 07:10:29;;;;;;;0.40;0.20;;;5.70;99.90;;;;;;5034142;28;20846;-73
2022/02/06 07:12:55;;;;;;;0.40;0.20;;;5.70;99.90;;;;;;5032948;28;20426;-70
2022/02/06 07:15:20;;;;;;;0.40;0.20;;;5.70;99.90;;;;;;5033947;28;20466;-72
2022/02/06 07:17:46;;;;;;;0.40;0.20;;;5.70;99.90;;;;;;5033194;28;20446;-73
2022/02/06 07:20:13;;;;;;;0.40;0.20;;;5.70;99.90;;;;;;5015391;28;20403;-73
2022/02/06 07:22:39;;;;;;;0.40;0.20;;;5.70;99.90;;;;;;5033533;28;20391;-71
2022/02/06 07:25:06;;;;;;;0.40;0.20;;;5.70;99.90;;;;;;5032763;28;20399;-72
2022/02/06 07:27:36;;;;;;;0.40;0.30;;;5.80;99.90;;;;;;5033421;28;20383;-72
2022/02/06 07:30:06;;;;;;;0.40;0.20;;;5.70;99.90;;;;;;5032781;28;20928;-72
2022/02/06 07:32:35;;;;;;;0.40;0.20;;;5.70;99.90;;;;;;5031487;28;20931;-73
2022/02/06 07:35:01;;;;;;;0.40;0.20;;;5.70;99.90;;;;;;5045720;28;20405;-73
2022/02/06 07:37:27;;;;;;;0.40;0.20;;;5.80;99.90;;;;;;5035412;28;20451;-74
2022/02/06 07:39:56;;;;;;;0.40;0.20;;;5.70;99.90;;;;;;5039971;28;20914;-72
2022/02/06 07:42:22;;;;;;;0.40;0.20;;;5.80;99.90;;;;;;5039133;28;20477;-72
2022/02/06 07:44:49;;;;;;;0.40;0.20;;;5.80;99.90;;;;;;5039165;28;20387;-73
2022/02/06 07:47:19;;;;;;;0.40;0.20;;;5.80;99.90;;;;;;5040981;28;20428;-72
2022/02/06 07:49:48;;;;;;;0.40;0.30;;;5.80;99.90;;;;;;5026351;28;20744;-73
2022/02/06 07:52:15;;;;;;;0.40;0.20;;;5.80;99.90;;;;;;5037851;28;20391;-73
2022/02/06 07:54:41;;;;;;;0.40;0.22;;;5.90;99.90;;;;;;5039343;28;20462;-69
2022/02/06 07:57:07;;;;;;;0.40;0.20;;;6.00;99.90;;;;;;5043558;28;20808;-72
2022/02/06 07:59:34;;;;;;;0.50;0.50;;;6.00;99.90;;;;;;5038833;28;20857;-72
2022/02/06 08:02:00;;;;;;;0.40;0.20;;;6.10;99.90;;;;;;5034625;28;20483;-72
2022/02/06 08:04:27;;;;;;;0.40;0.20;;;6.20;99.90;;;;;;5040843;28;21016;-71
2022/02/06 08:06:53;;;;;;;0.40;0.40;;;6.30;99.90;;;;;;5041374;28;20396;-70
2022/02/06 08:09:28;;;;;;;0.40;0.20;;;6.30;99.90;;;;;;5040127;28;20395;-71
2022/02/06 08:11:54;;;;;;;0.40;0.20;;;6.40;99.90;;;;;;5013172;28;20413;-72
2022/02/06 08:17:04;;;;;;;0.40;0.20;;;6.50;99.90;;;;;;5030972;28;20459;-72
2022/02/06 08:19:29;;;;;;;0.40;0.20;;;6.40;99.90;;;;;;5031922;28;20410;-74
2022/02/06 08:21:55;;;;;;;0.40;0.20;;;6.50;99.90;;;;;;5014675;28;20894;-72
2022/02/06 08:24:21;;;;;;;0.40;0.20;;;6.40;99.90;;;;;;5014545;28;20882;-72
2022/02/06 08:26:46;;;;;;;0.40;0.20;;;6.60;99.90;;;;;;5031366;28;20379;-73
2022/02/06 08:29:12;;;;;;;0.40;0.30;;;6.60;99.90;;;;;;5032678;28;20406;-70
2022/02/06 08:31:38;;;;;;;0.40;0.20;;;6.50;99.90;;;;;;5013847;28;20394;-72
2022/02/06 08:34:03;;;;;;;0.40;0.20;;;6.60;99.90;;;;;;5031751;28;20392;-71
2022/02/06 08:36:29;;;;;;;0.40;0.20;;;6.60;99.90;;;;;;5031960;28;20745;-72
2022/02/06 08:38:55;;;;;;;0.40;0.20;;;6.60;99.90;;;;;;5013417;28;20399;-69
2022/02/06 08:41:21;;;;;;;0.40;0.20;;;6.70;99.90;;;;;;5032307;28;20537;-71
2022/02/06 08:43:46;;;;;;;0.40;0.20;;;6.80;99.90;;;;;;5030998;28;20433;-73
2022/02/06 08:46:12;;;;;;;0.40;0.20;;;6.90;99.90;;;;;;5032276;28;20780;-72
2022/02/06 08:48:39;;;;;;;0.40;0.20;;;7.00;99.90;;;;;;5031158;28;20429;-70
2022/02/06 08:51:06;;;;;;;0.40;0.20;;;7.20;99.90;;;;;;5030392;28;20413;-72
2022/02/06 08:53:33;;;;;;;0.40;0.20;;;7.20;99.90;;;;;;5011868;28;20873;-72
2022/02/06 08:55:59;;;;;;;0.40;0.20;;;7.10;99.90;;;;;;5011370;28;20422;-72
2022/02/06 08:58:25;;;;;;;0.40;0.20;;;7.10;99.90;;;;;;5012023;28;20473;-71
2022/02/06 09:00:50;;;;;;;0.50;0.50;;;7.00;99.90;;;;;;5011774;28;20416;-72
2022/02/06 09:03:16;;;;;;;0.40;0.20;;;7.00;99.90;;;;;;4993456;28;20400;-73
2022/02/06 09:05:43;;;;;;;0.50;0.30;;;7.00;99.90;;;;;;5011652;28;20904;-73
2022/02/06 09:08:09;;;;;;;1.20;0.90;;;7.00;99.90;;;;;;5026207;28;20402;-71
2022/02/06 09:10:35;;;;;;;0.40;0.20;;;7.00;99.90;;;;;;5031039;28;20407;-72
2022/02/06 09:13:03;;;;;;;0.40;0.20;;;7.10;99.90;;;;;;5030438;28;20752;-73
2022/02/06 09:15:29;;;;;;;0.40;0.20;;;7.10;99.90;;;;;;5030919;28;20501;-71
2022/02/06 09:17:55;;;;;;;0.40;0.20;;;7.00;99.90;;;;;;5030769;28;20419;-71
2022/02/06 09:20:21;;;;;;;0.40;0.20;;;7.10;99.90;;;;;;5030233;28;20419;-71
2022/02/06 09:22:47;;;;;;;0.40;0.20;;;7.30;99.90;;;;;;5031732;28;20751;-69
2022/02/06 09:25:13;;;;;;;0.40;0.20;;;7.20;99.90;;;;;;5012849;28;20419;-73
2022/02/06 09:27:40;;;;;;;0.40;0.30;;;7.30;99.90;;;;;;5030947;28;20437;-71
2022/02/06 09:30:09;;;;;;;0.40;0.30;;;7.40;99.90;;;;;;5031341;28;20386;-73
2022/02/06 09:37:28;;;;;;;0.40;0.20;;;7.30;99.90;;;;;;5030325;28;20411;-72
2022/02/06 09:39:55;;;;;;;0.40;0.20;;;7.20;99.90;;;;;;5031271;28;20430;-72
2022/02/06 09:42:21;;;;;;;0.40;0.20;;;7.20;99.90;;;;;;5030307;28;20867;-72
2022/02/06 09:44:49;;;;;;;0.40;0.20;;;7.20;99.90;;;;;;5030870;28;20387;-72
2022/02/06 09:47:26;;;;;;;0.40;0.20;;;7.20;99.90;;;;;;5030813;28;20388;-73
2022/02/06 09:50:01;;;;;;;0.40;0.20;;;7.00;99.90;;;;;;5030594;28;20383;-73
2022/02/06 09:52:29;;;;;;;0.40;0.20;;;7.00;99.90;;;;;;5012175;28;20398;-72
2022/02/06 09:55:10;;;;;;;0.40;0.20;;;7.20;99.90;;;;;;5030823;28;20449;-72
2022/02/06 10:00:41;;;;;;;0.40;0.20;;;7.20;99.90;;;;;;5006693;28;20434;-71
2022/02/06 10:03:11;;;;;;;0.40;0.20;;;7.10;99.90;;;;;;5030919;28;20380;-71
2022/02/06 10:05:41;;;;;;;0.40;0.20;;;7.00;99.90;;;;;;5029450;28;20383;-72
2022/02/06 10:08:14;;;;;;;0.40;0.20;;;7.20;99.90;;;;;;5030777;28;20429;-71
2022/02/06 10:11:03;;;;;;;0.40;0.20;;;7.20;99.90;;;;;;5029342;28;20444;-69
2022/02/06 10:13:34;;;;;;;0.40;0.20;;;7.20;99.90;;;;;;5017554;28;20399;-73
2022/02/06 10:16:00;;;;;;;0.40;0.20;;;7.30;99.90;;;;;;5030521;28;20382;-70
2022/02/06 10:18:30;;;;;;;0.40;0.20;;;7.30;99.90;;;;;;5030578;28;20383;-71
2022/02/06 10:20:55;;;;;;;0.40;0.20;;;7.20;99.90;;;;;;5029672;28;20907;-69
2022/02/06 10:23:36;;;;;;;0.40;0.20;;;7.30;99.90;;;;;;5030238;28;20433;-71
2022/02/06 10:26:08;;;;;;;0.40;0.20;;;7.20;99.90;;;;;;5015199;28;20398;-72
2022/02/06 10:28:40;;;;;;;0.40;0.20;;;7.40;99.90;;;;;;5032866;28;20880;-72
2022/02/06 10:31:07;;;;;;;0.40;0.20;;;7.40;99.90;;;;;;5028080;28;20429;-69
2022/02/06 10:33:51;;;;;;;0.40;0.20;;;7.30;99.90;;;;;;5031648;28;20383;-72
2022/02/06 10:36:37;;;;;;;0.40;0.20;;;7.30;99.90;;;;;;5033874;28;20906;-70
2022/02/06 10:39:09;;;;;;;0.50;0.40;;;7.30;99.90;;;;;;5033182;28;20448;-71
2022/02/06 10:41:42;;;;;;;0.40;0.20;;;7.40;99.90;;;;;;5034357;28;20415;-71
2022/02/06 10:44:11;;;;;;;0.40;0.20;;;7.50;99.90;;;;;;5034754;28;20379;-68
2022/02/06 10:46:53;;;;;;;0.40;0.20;;;7.50;99.90;;;;;;5033895;28;20387;-71
2022/02/06 10:49:20;;;;;;;0.40;0.20;;;7.60;99.90;;;;;;5034682;28;20406;-70
2022/02/06 10:52:04;;;;;;;0.40;0.30;;;7.70;99.90;;;;;;5033841;28;20375;-72
2022/02/06 10:54:29;;;;;;;0.40;0.20;;;7.80;99.60;;;;;;5032681;28;20399;-71
2022/02/06 10:57:12;;;;;;;0.40;0.30;;;7.80;99.60;;;;;;5032859;28;20387;-70
2022/02/06 10:59:47;;;;;;;0.40;0.20;;;7.70;99.50;;;;;;5016649;28;20906;-71
2022/02/06 11:02:34;;;;;;;0.40;0.20;;;7.70;99.40;;;;;;5030689;28;20402;-70
2022/02/06 11:05:04;;;;;;;0.40;0.20;;;7.70;99.40;;;;;;5032859;28;20387;-72
2022/02/06 11:07:30;;;;;;;0.40;0.20;;;7.70;99.30;;;;;;5033623;28;20724;-72
2022/02/06 11:10:23;;;;;;;0.40;0.30;;;7.70;99.30;;;;;;5033121;28;20398;-70
2022/02/06 11:12:51;;;;;;;0.40;0.20;;;7.70;99.60;;;;;;5030811;28;20407;-70
2022/02/06 11:15:24;;;;;;;0.40;0.30;;;7.70;99.60;;;;;;5032846;28;20383;-72
2022/02/06 11:18:32;;;;;;;0.40;0.20;;;7.60;99.90;;;;;;5033308;28;20398;-73
2022/02/06 11:21:02;;;;;;;0.40;0.20;;;7.50;99.90;;;;;;4945486;28;20478;-73
2022/02/06 11:23:37;;;;;;;0.40;0.20;;;7.50;99.90;;;;;;5022810;28;20391;-73
2022/02/06 11:26:05;;;;;;;0.40;0.20;;;7.50;99.90;;;;;;5029254;28;20391;-71
2022/02/06 11:28:31;;;;;;;0.40;0.20;;;7.50;99.90;;;;;;5015230;28;20406;-70
2022/02/06 11:30:57;;;;;;;0.40;0.20;;;7.40;99.90;;;;;;5033084;28;20414;-72
2022/02/06 11:33:23;;;;;;;0.40;0.30;;;7.40;99.90;;;;;;5036167;28;20416;-72
2022/02/06 11:35:57;;;;;;;0.40;0.30;;;7.40;99.90;;;;;;5017105;28;20395;-71
2022/02/06 11:44:43;;;;;;;0.60;0.60;;;7.40;99.90;;;;;;5032285;28;20468;-72
2022/02/06 11:47:12;;;;;;;0.40;0.20;;;7.60;99.90;;;;;;5012834;28;20412;-72
2022/02/06 11:49:41;;;;;;;0.70;0.50;;;7.50;99.90;;;;;;5013503;28;20465;-73
2022/02/06 11:52:07;;;;;;;0.40;0.20;;;7.50;99.90;;;;;;5013450;28;20396;-72
2022/02/06 11:54:52;;;;;;;0.40;0.20;;;7.60;99.90;;;;;;5012399;28;20376;-72
2022/02/06 11:57:25;;;;;;;0.40;0.30;;;7.60;99.90;;;;;;5010944;28;20423;-73
2022/02/06 12:02:31;;;;;;;0.40;0.20;;;7.70;99.90;;;;;;5012057;28;20468;-70
2022/02/06 12:05:16;;;;;;;0.40;0.20;;;7.70;99.90;;;;;;5011733;28;20476;-73
2022/02/06 12:07:52;;;;;;;0.40;0.20;;;7.60;99.90;;;;;;5012389;28;20426;-71
2022/02/06 12:10:33;;;;;;;0.40;0.30;;;7.60;99.90;;;;;;5011964;28;20416;-68
2022/02/06 12:13:10;;;;;;;0.40;0.20;;;7.60;99.90;;;;;;5012931;28;20431;-72
2022/02/06 12:15:56;;;;;;;0.40;0.20;;;7.60;99.90;;;;;;5012217;28;20396;-73
2022/02/06 12:18:35;;;;;;;0.40;0.30;;;7.70;99.90;;;;;;5012826;28;20396;-74
2022/02/06 12:21:12;;;;;;;0.40;0.20;;;7.70;99.90;;;;;;5012877;28;20420;-72
2022/02/06 12:23:59;;;;;;;0.40;0.20;;;7.70;99.90;;;;;;5012098;28;20385;-74
2022/02/06 12:26:29;;;;;;;0.40;0.20;;;7.70;99.90;;;;;;5028133;28;20873;-73
2022/02/06 12:28:58;;;;;;;0.40;0.20;;;7.60;99.90;;;;;;5012568;28;20461;-71
2022/02/06 12:31:30;;;;;;;0.40;0.20;;;7.60;99.90;;;;;;5012664;28;20451;-71
2022/02/06 12:37:06;;;;;;;0.40;0.20;;;7.70;99.90;;;;;;5012088;28;20381;-69
2022/02/06 12:39:33;;;;;;;0.40;0.20;;;7.80;99.90;;;;;;5012186;28;20483;-71
2022/02/06 12:42:00;;;;;;;0.40;0.20;;;7.80;99.90;;;;;;5014930;28;20885;-72
2022/02/06 12:44:28;;;;;;;0.40;0.20;;;7.70;99.90;;;;;;5030767;28;20410;-71
2022/02/06 12:47:11;;;;;;;0.40;0.20;;;7.70;99.90;;;;;;5031082;28;20429;-69
2022/02/06 12:49:39;;;;;;;0.40;0.20;;;7.70;99.90;;;;;;5030315;28;20407;-74
2022/02/06 12:52:05;;;;;;;0.40;0.20;;;7.80;99.90;;;;;;5031485;28;20394;-76
2022/02/06 12:54:31;;;;;;;0.40;0.20;;;7.70;99.90;;;;;;5031812;28;20387;-73
2022/02/06 12:56:59;;;;;;;0.40;0.20;;;7.70;99.90;;;;;;5013335;28;20395;-70
2022/02/06 12:59:27;;;;;;;0.40;0.20;;;7.60;99.90;;;;;;5032044;28;20478;-73
2022/02/06 13:01:55;;;;;;;0.40;0.20;;;7.60;99.90;;;;;;5030939;28;20515;-71
2022/02/06 13:04:23;;;;;;;0.40;0.20;;;7.50;99.90;;;;;;5031489;28;20889;-72
2022/02/06 13:06:58;;;;;;;0.40;0.20;;;7.40;99.90;;;;;;5030725;28;20383;-71
2022/02/06 13:09:29;;;;;;;0.40;0.20;;;7.40;99.90;;;;;;5015189;28;20406;-72
2022/02/06 13:17:29;;;;;;;0.40;0.30;;;7.40;99.90;;;;;;5030812;28;20387;-72
2022/02/06 13:20:17;;;;;;;0.40;0.20;;;7.40;99.90;;;;;;5030064;28;20411;-72
2022/02/06 13:33:30;;;;;;;0.40;0.20;;;7.30;99.90;;;;;;5031433;28;20454;-72
2022/02/06 13:38:43;;;;;;;0.60;0.60;;;7.30;99.90;;;;;;5031456;28;20832;-72
2022/02/06 13:41:14;;;;;;;0.40;0.30;;;7.30;99.90;;;;;;5030397;28;20512;-73
2022/02/06 13:43:41;;;;;;;0.40;0.20;;;7.30;99.90;;;;;;5031089;28;20387;-70
2022/02/06 13:46:23;;;;;;;0.40;0.30;;;7.40;99.90;;;;;;5029372;28;20383;-71
2022/02/06 13:48:49;;;;;;;0.40;0.20;;;7.40;99.90;;;;;;5031086;28;20379;-72
2022/02/06 13:51:16;;;;;;;0.40;0.20;;;7.40;99.90;;;;;;5029945;28;20411;-72
2022/02/06 13:54:01;;;;;;;0.40;0.20;;;7.40;99.90;;;;;;5030957;28;20390;-72
2022/02/06 13:56:28;;;;;;;0.40;0.20;;;7.30;99.90;;;;;;5030132;28;20393;-72
2022/02/06 13:59:04;;;;;;;0.40;0.20;;;7.30;99.90;;;;;;5030724;28;20871;-73
2022/02/06 14:01:39;;;;;;;0.40;0.20;;;7.30;99.90;;;;;;5024164;28;20663;-73
2022/02/06 14:04:06;;;;;;;0.40;0.20;;;7.30;99.90;;;;;;5031215;28;20899;-73
2022/02/06 14:06:47;;;;;;;0.40;0.20;;;7.20;99.90;;;;;;5029980;28;20379;-73
2022/02/06 14:09:24;;;;;;;0.40;0.20;;;7.20;99.90;;;;;;5012589;28;20550;-73
2022/02/06 14:12:04;;;;;;;0.40;0.20;;;7.20;99.90;;;;;;5030673;28;20895;-73
2022/02/06 14:14:36;;;;;;;0.40;0.20;;;7.20;99.90;;;;;;5012540;28;20394;-73
2022/02/06 14:17:08;;;;;;;0.40;0.20;;;7.20;99.90;;;;;;5029611;28;20748;-72
2022/02/06 14:19:36;;;;;;;0.40;0.20;;;7.20;99.90;;;;;;5030143;28;20429;-72
2022/02/06 14:22:03;;;;;;;0.40;0.30;;;7.10;99.90;;;;;;5029448;28;20448;-69
2022/02/06 14:24:29;;;;;;;0.40;0.20;;;7.20;99.90;;;;;;5029878;28;20427;-73
2022/02/06 14:27:03;;;;;;;0.40;0.20;;;7.10;99.90;;;;;;5030701;28;20422;-72
2022/02/06 14:29:31;;;;;;;0.40;0.20;;;7.10;99.90;;;;;;5029700;28;20870;-72
2022/02/06 14:32:22;;;;;;;0.40;0.20;;;7.00;99.90;;;;;;5030753;28;20402;-73
2022/02/06 14:34:59;;;;;;;0.40;0.20;;;7.10;99.90;;;;;;5030081;28;20851;-70
2022/02/06 14:37:28;;;;;;;0.40;0.20;;;7.00;99.90;;;;;;5029248;28;20445;-70
2022/02/06 14:40:13;;;;;;;0.40;0.20;;;7.00;99.90;;;;;;5012593;28;20960;-69
2022/02/06 14:42:53;;;;;;;0.40;0.30;;;7.00;99.90;;;;;;5029667;28;20755;-70
2022/02/06 14:45:20;;;;;;;0.40;0.20;;;7.00;99.90;;;;;;5030292;28;20775;-68
2022/02/06 14:47:46;;;;;;;0.40;0.40;;;7.00;99.90;;;;;;5029635;28;20387;-68
2022/02/06 14:50:17;;;;;;;0.40;0.30;;;7.00;99.90;;;;;;5030505;28;20383;-71
2022/02/06 14:52:44;;;;;;;0.40;0.20;;;7.00;99.90;;;;;;5029751;28;20460;-71
2022/02/06 14:55:11;;;;;;;0.40;0.20;;;7.00;99.90;;;;;;5030392;28;20871;-73
2022/02/06 14:57:37;;;;;;;0.90;0.70;;;7.10;99.90;;;;;;5029378;28;20883;-72
2022/02/06 15:00:09;;;;;;;0.40;0.20;;;7.10;99.90;;;;;;5029994;28;20411;-73
2022/02/06 15:02:35;;;;;;;0.40;0.20;;;7.10;99.90;;;;;;5029810;28;20375;-70
2022/02/06 15:05:01;;;;;;;0.40;0.20;;;7.10;99.90;;;;;;5029647;28;20979;-70
2022/02/06 15:07:28;;;;;;;0.40;0.20;;;7.10;99.90;;;;;;5030308;28;20470;-70
2022/02/06 15:09:55;;;;;;;0.40;0.40;;;7.10;99.90;;;;;;5028974;28;20479;-70
2022/02/06 15:12:21;;;;;;;0.40;0.20;;;7.10;99.90;;;;;;5030224;28;20470;-71
2022/02/06 15:14:46;;;;;;;0.40;0.30;;;7.10;99.90;;;;;;5032743;28;20497;-71
2022/02/06 15:17:18;;;;;;;0.40;0.20;;;7.10;99.90;;;;;;5033454;28;20461;-68
2022/02/06 15:19:45;;;;;;;0.40;0.30;;;7.10;99.90;;;;;;5032847;28;20379;-72
2022/02/06 15:22:11;;;;;;;0.40;0.30;;;7.20;99.90;;;;;;5033641;28;20390;-72
2022/02/06 15:24:36;;;;;;;0.40;0.30;;;7.10;99.90;;;;;;5033552;28;20384;-71
2022/02/06 15:27:02;;;;;;;0.40;0.20;;;7.10;99.90;;;;;;5032897;28;20859;-71
2022/02/06 15:29:29;;;;;;;0.40;0.20;;;7.10;99.90;;;;;;5015748;28;20434;-73
2022/02/06 15:32:00;;;;;;;0.40;0.20;;;7.20;99.90;;;;;;5033006;28;20748;-72
2022/02/06 15:34:29;;;;;;;0.40;0.20;;;7.20;99.90;;;;;;5033531;28;20384;-71
2022/02/06 15:36:59;;;;;;;0.80;0.80;;;7.20;99.90;;;;;;5032264;28;20465;-71
2022/02/06 15:39:34;;;;;;;0.40;0.20;;;7.20;99.90;;;;;;5033079;28;20398;-69
2022/02/06 15:42:01;;;;;;;0.40;0.20;;;7.20;99.90;;;;;;5032337;28;20486;-70
2022/02/06 15:44:26;;;;;;;0.40;0.20;;;7.20;99.90;;;;;;5033243;28;20383;-72
2022/02/06 15:46:52;;;;;;;0.40;0.27;;;7.30;99.90;;;;;;5031739;28;20457;-72
2022/02/06 15:49:19;;;;;;;0.40;0.20;;;7.30;99.90;;;;;;5032999;28;20387;-72
2022/02/06 15:51:46;;;;;;;0.40;0.20;;;7.30;99.90;;;;;;5033225;28;20415;-72
2022/02/06 15:54:12;;;;;;;0.40;0.20;;;7.40;99.90;;;;;;5032557;28;20466;-70
2022/02/06 15:56:38;;;;;;;0.40;0.20;;;7.50;99.90;;;;;;5032927;28;20483;-73
2022/02/06 15:59:04;;;;;;;0.40;0.30;;;7.40;99.90;;;;;;5031917;28;20871;-70
2022/02/06 16:01:30;;;;;;;0.40;0.20;;;7.50;99.90;;;;;;5033125;28;20411;-72
2022/02/06 16:03:56;;;;;;;0.40;0.30;;;7.50;99.90;;;;;;5031819;28;20955;-74